createdAt,value
2019-05-05T00:00:24.197Z,8.85
2019-05-05T00:01:05.186Z,8.91
2019-05-05T00:01:45.018Z,8.85
2019-05-05T00:02:24.899Z,8.93
2019-05-05T00:03:05.100Z,8.94
2019-05-05T00:03:45.496Z,8.89
2019-05-05T00:04:26.064Z,8.89
2019-05-05T00:05:08.502Z,9
2019-05-05T00:05:46.877Z,8.96
2019-05-05T00:06:27.334Z,9.06
2019-05-05T00:07:07.695Z,9.01
2019-05-05T00:07:48.774Z,8.97
2019-05-05T00:08:29.217Z,8.86
2019-05-05T00:09:09.748Z,8.75
2019-05-05T00:09:50.180Z,8.75
2019-05-05T00:10:30.625Z,8.78
2019-05-05T00:11:11.079Z,8.73
2019-05-05T00:11:51.631Z,8.71
2019-05-05T00:12:31.925Z,8.73
2019-05-05T00:13:12.367Z,8.83
2019-05-05T00:13:52.747Z,8.73
2019-05-05T00:14:34.993Z,8.83
2019-05-05T00:15:14.565Z,8.78
2019-05-05T00:15:55.299Z,8.78
2019-05-05T00:16:35.349Z,8.78
2019-05-05T00:17:15.936Z,8.64
2019-05-05T00:18:36.844Z,8.67
2019-05-05T00:19:29.677Z,8.65
2019-05-05T00:19:58.009Z,8.64
2019-05-05T00:20:38.535Z,8.71
2019-05-05T00:21:18.994Z,8.68
2019-05-05T00:21:59.583Z,8.52
2019-05-05T00:22:40.169Z,8.6
2019-05-05T00:23:20.682Z,8.54
2019-05-05T00:24:01.865Z,8.57
2019-05-05T00:24:44.165Z,8.55
2019-05-05T00:25:24.923Z,8.58
2019-05-05T00:26:04.352Z,8.54
2019-05-05T00:26:46.013Z,8.49
2019-05-05T00:27:25.453Z,8.54
2019-05-05T00:28:47.830Z,8.49
2019-05-05T00:29:28.289Z,8.52
2019-05-05T00:30:08.881Z,8.47
2019-05-05T00:30:49.277Z,8.5
2019-05-05T00:31:31.080Z,8.52
2019-05-05T00:32:11.501Z,8.55
2019-05-05T00:32:54.642Z,8.6
2019-05-05T00:33:34.327Z,8.54
2019-05-05T00:34:15.564Z,8.57
2019-05-05T00:34:56.055Z,8.5
2019-05-05T00:35:36.953Z,8.5
2019-05-05T00:36:17.366Z,8.52
2019-05-05T00:36:58.643Z,8.47
2019-05-05T00:37:39.210Z,8.46
2019-05-05T00:39:00.097Z,8.47
2019-05-05T00:39:41.076Z,8.49
2019-05-05T00:40:21.661Z,8.39
2019-05-05T00:41:05.408Z,8.4
2019-05-05T00:41:46.054Z,8.39
2019-05-05T00:42:25.517Z,8.39
2019-05-05T00:43:08.394Z,8.42
2019-05-05T00:44:59.700Z,8.39
2019-05-05T00:46:39.137Z,8.32
2019-05-05T00:47:26.318Z,8.31
2019-05-05T00:49:47.024Z,8.39
2019-05-05T00:51:34.340Z,8.45
2019-05-05T00:56:29.505Z,8.57
2019-05-05T00:57:10.523Z,8.46
2019-05-05T00:57:54.866Z,8.49
2019-05-05T00:58:35.717Z,8.47
2019-05-05T00:59:16.076Z,8.49
2019-05-05T00:59:59.788Z,8.28
2019-05-05T01:00:39.710Z,8.32
2019-05-05T01:01:20.080Z,8.18
2019-05-05T01:02:04.603Z,8.32
2019-05-05T01:02:44.895Z,8.21
2019-05-05T01:03:24.325Z,8.25
2019-05-05T01:04:06.970Z,8.17
2019-05-05T01:04:44.996Z,8.22
2019-05-05T01:05:25.652Z,8.18
2019-05-05T01:06:07.914Z,8.18
2019-05-05T01:06:49.501Z,8.25
2019-05-05T01:07:29.621Z,8.17
2019-05-05T01:08:10.861Z,8.28
2019-05-05T01:08:51.083Z,8.21
2019-05-05T01:09:31.882Z,8.2
2019-05-05T01:10:14.096Z,8.2
2019-05-05T01:10:55.257Z,8.06
2019-05-05T01:11:35.957Z,8.03
2019-05-05T01:12:17.991Z,8.14
2019-05-05T01:12:59.078Z,8.03
2019-05-05T01:13:45.273Z,8.06
2019-05-05T01:14:24.951Z,8.07
2019-05-05T01:15:04.653Z,7.94
2019-05-05T01:15:44.919Z,7.94
2019-05-05T01:16:25.769Z,7.86
2019-05-05T01:17:07.387Z,7.91
2019-05-05T01:17:47.981Z,7.95
2019-05-05T01:18:28.237Z,7.79
2019-05-05T01:19:11.023Z,7.85
2019-05-05T01:20:01.042Z,7.95
2019-05-05T01:20:34.279Z,7.95
2019-05-05T01:21:15.000Z,7.96
2019-05-05T01:21:54.489Z,7.79
2019-05-05T01:22:34.432Z,7.77
2019-05-05T01:23:15.119Z,7.95
2019-05-05T01:23:55.262Z,7.99
2019-05-05T01:24:35.675Z,8.03
2019-05-05T01:25:16.077Z,7.91
2019-05-05T01:25:56.566Z,7.96
2019-05-05T01:26:36.913Z,8.1
2019-05-05T01:27:17.233Z,8.07
2019-05-05T01:27:57.730Z,8.22
2019-05-05T01:28:38.397Z,8.18
2019-05-05T01:29:19.504Z,8.17
2019-05-05T01:29:59.863Z,8.09
2019-05-05T01:30:40.288Z,8.04
2019-05-05T01:31:20.704Z,8.09
2019-05-05T01:32:01.089Z,8.02
2019-05-05T01:32:41.438Z,7.92
2019-05-05T01:33:21.874Z,8.04
2019-05-05T01:34:02.221Z,8.06
2019-05-05T01:34:44.341Z,7.96
2019-05-05T01:35:24.883Z,7.95
2019-05-05T01:36:04.618Z,7.94
2019-05-05T01:36:45.105Z,7.94
2019-05-05T01:37:25.432Z,8.07
2019-05-05T01:38:05.539Z,8.07
2019-05-05T01:38:48.631Z,8.1
2019-05-05T01:39:29.040Z,8.17
2019-05-05T01:40:14.176Z,8.06
2019-05-05T01:40:54.728Z,8.1
2019-05-05T01:41:38.017Z,8.18
2019-05-05T01:42:59.615Z,8.22
2019-05-05T01:43:40.062Z,8.18
2019-05-05T01:44:24.642Z,8.13
2019-05-05T01:45:07.688Z,8.18
2019-05-05T01:45:48.199Z,8.14
2019-05-05T01:46:28.681Z,8.17
2019-05-05T01:47:09.027Z,8.17
2019-05-05T01:47:50.106Z,8.28
2019-05-05T01:48:31.639Z,8.21
2019-05-05T01:49:14.622Z,8.37
2019-05-05T01:49:54.594Z,8.37
2019-05-05T01:50:35.028Z,8.28
2019-05-05T01:51:15.230Z,8.46
2019-05-05T01:51:55.582Z,8.52
2019-05-05T01:52:36.008Z,8.46
2019-05-05T01:53:16.416Z,8.63
2019-05-05T01:53:56.816Z,8.52
2019-05-05T01:54:37.256Z,8.49
2019-05-05T01:55:17.633Z,8.55
2019-05-05T01:55:58.039Z,8.49
2019-05-05T01:56:38.455Z,8.39
2019-05-05T01:57:59.317Z,8.29
2019-05-05T01:58:39.613Z,8.18
2019-05-05T01:59:19.989Z,8.21
2019-05-05T02:00:00.402Z,8.14
2019-05-05T02:00:40.836Z,8.03
2019-05-05T02:01:21.171Z,7.92
2019-05-05T02:02:01.591Z,7.92
2019-05-05T02:02:41.939Z,7.96
2019-05-05T02:03:24.310Z,8.02
2019-05-05T02:04:02.744Z,7.99
2019-05-05T02:04:44.654Z,7.95
2019-05-05T02:12:44.863Z,7.74
2019-05-05T02:13:34.756Z,7.71
2019-05-05T02:14:24.615Z,7.7
2019-05-05T02:15:14.998Z,7.63
2019-05-05T02:15:56.386Z,7.58
2019-05-05T02:16:37.532Z,7.54
2019-05-05T02:18:38.156Z,7.66
2019-05-05T02:19:28.143Z,7.77
2019-05-05T02:23:29.886Z,7.99
2019-05-05T02:26:07.237Z,7.95
2019-05-05T02:26:46.392Z,7.95
2019-05-05T02:27:26.841Z,7.92
2019-05-05T02:28:07.214Z,7.99
2019-05-05T02:28:47.641Z,8.04
2019-05-05T02:29:28.058Z,7.92
2019-05-05T02:30:08.470Z,7.94
2019-05-05T02:30:48.884Z,7.99
2019-05-05T02:31:29.299Z,7.96
2019-05-05T02:32:09.715Z,7.95
2019-05-05T02:32:50.097Z,7.96
2019-05-05T02:33:30.491Z,7.99
2019-05-05T02:34:10.845Z,7.91
2019-05-05T02:34:51.268Z,7.94
2019-05-05T02:35:35.268Z,7.91
2019-05-05T02:36:15.894Z,7.92
2019-05-05T02:36:56.457Z,7.96
2019-05-05T02:37:35.688Z,7.94
2019-05-05T02:38:15.762Z,7.91
2019-05-05T02:38:56.657Z,7.99
2019-05-05T02:39:38.965Z,7.96
2019-05-05T02:40:56.741Z,7.94
2019-05-05T02:41:37.181Z,8
2019-05-05T02:42:17.554Z,8.03
2019-05-05T02:42:57.961Z,8
2019-05-05T02:43:38.364Z,8.04
2019-05-05T02:44:18.771Z,8.09
2019-05-05T02:44:59.173Z,7.99
2019-05-05T02:45:39.575Z,8.02
2019-05-05T02:46:19.980Z,8
2019-05-05T02:47:00.387Z,8.02
2019-05-05T02:47:40.831Z,8.04
2019-05-05T02:48:21.139Z,8.02
2019-05-05T02:49:04.935Z,7.99
2019-05-05T02:49:45.094Z,7.96
2019-05-05T02:50:25.059Z,7.95
2019-05-05T02:51:44.666Z,7.82
2019-05-05T02:52:24.555Z,7.82
2019-05-05T02:53:04.191Z,7.7
2019-05-05T02:54:25.370Z,7.5
2019-05-05T02:55:05.559Z,7.42
2019-05-05T02:55:47.098Z,7.42
2019-05-05T02:56:27.360Z,7.36
2019-05-05T02:57:07.755Z,7.33
2019-05-05T02:57:50.647Z,7.3
2019-05-05T02:58:30.901Z,7.26
2019-05-05T02:59:15.832Z,7.19
2019-05-05T02:59:56.141Z,7.3
2019-05-05T03:00:36.607Z,7.33
2019-05-05T03:01:17.129Z,7.29
2019-05-05T03:01:57.519Z,7.33
2019-05-05T03:02:38.111Z,7.36
2019-05-05T03:03:18.362Z,7.3
2019-05-05T03:03:58.727Z,7.32
2019-05-05T03:04:39.164Z,7.24
2019-05-05T03:05:19.541Z,7.26
2019-05-05T03:05:59.970Z,7.16
2019-05-05T03:06:40.321Z,7.12
2019-05-05T03:07:20.750Z,7.15
2019-05-05T03:08:01.562Z,7.14
2019-05-05T03:08:43.904Z,7.11
2019-05-05T03:10:03.703Z,7.12
2019-05-05T03:10:44.285Z,6.94
2019-05-05T03:11:25.233Z,7.01
2019-05-05T03:12:05.372Z,6.96
2019-05-05T03:12:45.890Z,7.08
2019-05-05T03:13:26.578Z,7.04
2019-05-05T03:14:08.980Z,7.19
2019-05-05T03:14:49.409Z,7.14
2019-05-05T03:15:29.794Z,7.16
2019-05-05T03:16:10.082Z,7.21
2019-05-05T03:16:53.971Z,7.27
2019-05-05T03:17:34.055Z,7.27
2019-05-05T03:18:13.957Z,7.3
2019-05-05T03:18:54.527Z,7.34
2019-05-05T03:19:34.603Z,7.36
2019-05-05T03:20:15.834Z,7.34
2019-05-05T03:21:03.982Z,7.33
2019-05-05T03:21:36.595Z,7.23
2019-05-05T03:22:17.013Z,7.24
2019-05-05T03:22:57.506Z,7.29
2019-05-05T03:23:37.872Z,7.47
2019-05-05T03:24:18.311Z,7.54
2019-05-05T03:24:58.700Z,7.62
2019-05-05T03:25:39.137Z,7.51
2019-05-05T03:26:19.566Z,7.52
2019-05-05T03:27:00.003Z,7.6
2019-05-05T03:27:40.339Z,7.55
2019-05-05T03:28:20.737Z,7.62
2019-05-05T03:29:01.148Z,7.66
2019-05-05T03:29:41.547Z,7.58
2019-05-05T03:30:21.941Z,7.55
2019-05-05T03:31:04.960Z,7.63
2019-05-05T03:31:45.683Z,7.57
2019-05-05T03:32:25.360Z,7.66
2019-05-05T03:33:05.361Z,7.73
2019-05-05T03:33:48.375Z,7.74
2019-05-05T03:34:28.799Z,7.71
2019-05-05T03:35:09.179Z,7.84
2019-05-05T03:35:49.608Z,7.81
2019-05-05T03:36:30.023Z,7.84
2019-05-05T03:37:10.352Z,7.85
2019-05-05T03:37:50.882Z,7.82
2019-05-05T03:38:31.137Z,7.81
2019-05-05T03:39:11.502Z,7.94
2019-05-05T03:39:53.676Z,7.92
2019-05-05T03:40:34.212Z,7.85
2019-05-05T03:41:13.570Z,7.85
2019-05-05T03:41:54.237Z,7.86
2019-05-05T03:42:33.882Z,7.82
2019-05-05T03:43:14.571Z,7.79
2019-05-05T03:43:56.901Z,7.79
2019-05-05T03:44:34.849Z,7.82
2019-05-05T03:45:15.210Z,7.94
2019-05-05T03:45:56.125Z,7.95
2019-05-05T03:46:36.579Z,7.99
2019-05-05T03:47:20.727Z,7.84
2019-05-05T03:48:01.089Z,7.81
2019-05-05T03:48:41.512Z,7.71
2019-05-05T03:49:24.193Z,7.76
2019-05-05T03:50:04.306Z,7.74
2019-05-05T03:50:44.597Z,7.66
2019-05-05T03:51:24.320Z,7.67
2019-05-05T03:53:17.870Z,7.7
2019-05-05T03:54:14.589Z,7.74
2019-05-05T03:55:11.270Z,7.74
2019-05-05T03:56:03.876Z,7.77
2019-05-05T03:59:14.061Z,7.94
2019-05-05T03:59:51.843Z,7.95
2019-05-05T04:00:33.998Z,7.99
2019-05-05T04:01:14.369Z,8.13
2019-05-05T04:01:55.002Z,8
2019-05-05T04:02:35.405Z,8.07
2019-05-05T04:03:15.745Z,8.17
2019-05-05T04:03:56.145Z,8.12
2019-05-05T04:04:37.142Z,8.14
2019-05-05T04:05:57.511Z,8.28
2019-05-05T04:06:37.936Z,8.21
2019-05-05T04:07:18.336Z,8.34
2019-05-05T04:07:58.851Z,8.29
2019-05-05T04:08:39.101Z,8.31
2019-05-05T04:09:19.484Z,8.29
2019-05-05T04:09:59.821Z,8.36
2019-05-05T04:11:20.583Z,8.39
2019-05-05T04:12:00.985Z,8.4
2019-05-05T04:12:43.307Z,8.31
2019-05-05T04:13:21.765Z,8.36
2019-05-05T04:14:03.650Z,8.39
2019-05-05T04:14:44.001Z,8.29
2019-05-05T04:15:24.410Z,8.36
2019-05-05T04:16:04.050Z,8.29
2019-05-05T04:16:43.828Z,8.28
2019-05-05T04:17:24.512Z,8.18
2019-05-05T04:18:04.667Z,8.29
2019-05-05T04:18:45.065Z,8.28
2019-05-05T04:19:25.441Z,8.2
2019-05-05T04:20:05.910Z,8.22
2019-05-05T04:20:46.350Z,8.28
2019-05-05T04:21:33.093Z,8.28
2019-05-05T04:22:07.039Z,8.31
2019-05-05T04:22:47.463Z,8.28
2019-05-05T04:23:27.876Z,8.27
2019-05-05T04:24:08.258Z,8.39
2019-05-05T04:24:48.689Z,8.36
2019-05-05T04:25:29.032Z,8.39
2019-05-05T04:26:49.850Z,8.4
2019-05-05T04:27:30.191Z,8.49
2019-05-05T04:28:10.588Z,8.6
2019-05-05T05:08:03.246Z,8.03
2019-05-05T05:08:59.171Z,7.92
2019-05-05T05:09:39.408Z,7.94
2019-05-05T05:10:20.725Z,7.96
2019-05-05T05:11:01.112Z,8
2019-05-05T05:11:41.537Z,7.96
2019-05-05T05:12:23.678Z,8
2019-05-05T05:13:04.416Z,7.99
2019-05-05T05:13:43.999Z,8.06
2019-05-05T05:14:24.656Z,8.18
2019-05-05T05:15:04.968Z,8.14
2019-05-05T05:20:24.454Z,8.2
2019-05-05T05:21:26.982Z,8.45
2019-05-05T05:22:44.066Z,8.52
2019-05-05T05:23:38.069Z,8.57
2019-05-05T05:25:43.806Z,8.79
2019-05-05T05:26:24.265Z,8.86
2019-05-05T11:06:48.998Z,18.71
2019-05-05T11:07:30.633Z,18.56
2019-05-05T11:08:13.604Z,18.42
2019-05-05T11:08:53.976Z,18.19
2019-05-05T11:09:33.829Z,17.83
2019-05-05T11:10:14.207Z,17.57
2019-05-05T11:10:56.367Z,17.42
2019-05-05T11:11:37.593Z,17.22
2019-05-05T11:12:18.973Z,17.14
2019-05-05T11:12:59.316Z,17
2019-05-05T11:13:42.703Z,16.92
2019-05-05T11:14:20.048Z,16.82
2019-05-05T11:15:00.486Z,16.6
2019-05-05T11:15:41.030Z,16.5
2019-05-05T11:16:27.201Z,16.34
2019-05-05T11:17:09.603Z,16.47
2019-05-05T11:17:49.875Z,16.44
2019-05-05T11:18:30.223Z,16.33
2019-05-05T11:19:13.630Z,16.42
2019-05-05T11:19:52.853Z,16.47
2019-05-05T11:20:34.886Z,16.34
2019-05-05T11:21:57.561Z,16.5
2019-05-05T11:22:39.866Z,16.55
2019-05-05T11:23:20.225Z,16.62
2019-05-05T11:24:00.634Z,16.73
2019-05-05T11:24:53.712Z,16.82
2019-05-05T11:25:21.364Z,17.09
2019-05-05T11:26:01.764Z,17.35
2019-05-05T11:26:44.532Z,17.53
2019-05-05T11:27:26.260Z,17.71
2019-05-05T11:28:06.433Z,17.95
2019-05-05T11:28:48.684Z,18.31
2019-05-05T11:29:29.308Z,18.34
2019-05-05T11:30:09.671Z,18.57
2019-05-05T11:30:50.083Z,18.78
2019-05-05T11:31:30.572Z,18.84
2019-05-05T11:32:10.907Z,18.87
2019-05-05T11:33:10.160Z,19.02
2019-05-05T11:33:50.566Z,19.06
2019-05-05T11:34:30.942Z,19.1
2019-05-05T11:35:11.310Z,19.16
2019-05-05T11:35:53.825Z,19.15
2019-05-05T11:36:34.370Z,19.13
2019-05-05T11:37:12.620Z,19.24
2019-05-05T11:37:54.296Z,19.28
2019-05-05T11:38:34.340Z,19.42
2019-05-05T11:39:15.700Z,19.45
2019-05-05T11:39:56.076Z,19.58
2019-05-05T11:40:36.524Z,19.71
2019-05-05T11:41:17.531Z,19.79
2019-05-05T11:41:58.142Z,19.92
2019-05-05T11:42:38.280Z,19.92
2019-05-05T11:43:18.714Z,20.08
2019-05-05T11:43:59.405Z,20.19
2019-05-05T11:44:39.794Z,20.34
2019-05-05T11:45:20.120Z,20.63
2019-05-05T11:46:02.218Z,20.69
2019-05-05T11:46:44.245Z,20.71
2019-05-05T11:47:24.491Z,20.75
2019-05-05T11:48:03.396Z,20.9
2019-05-05T11:48:44.086Z,20.78
2019-05-05T11:49:24.540Z,20.66
2019-05-05T11:50:05.150Z,20.68
2019-05-05T11:50:45.343Z,20.91
2019-05-05T11:51:26.639Z,20.93
2019-05-05T11:52:07.282Z,20.9
2019-05-05T11:53:28.546Z,20.87
2019-05-05T11:54:09.373Z,20.78
2019-05-05T11:54:49.820Z,20.73
2019-05-05T11:57:05.928Z,20.69
2019-05-05T11:57:46.191Z,20.66
2019-05-05T11:58:28.463Z,20.68
2019-05-05T11:59:09.301Z,20.88
2019-05-05T11:59:49.658Z,20.91
2019-05-05T12:00:30.155Z,21.05
2019-05-05T12:01:10.515Z,21.13
2019-05-05T12:01:50.914Z,21
2019-05-05T12:02:32.986Z,21.08
2019-05-05T12:03:14.292Z,20.93
2019-05-05T12:03:54.134Z,20.71
2019-05-05T12:04:34.565Z,20.64
2019-05-05T12:05:15.863Z,20.6
2019-05-05T12:05:56.468Z,20.64
2019-05-05T12:06:36.786Z,20.71
2019-05-05T12:07:17.343Z,20.75
2019-05-05T12:07:57.689Z,20.82
2019-05-05T12:08:38.016Z,20.93
2019-05-05T12:09:18.541Z,20.93
2019-05-05T12:09:58.873Z,20.9
2019-05-05T12:10:39.385Z,20.83
2019-05-05T12:11:20.515Z,20.82
2019-05-05T12:12:00.783Z,20.91
2019-05-05T12:12:44.144Z,21.12
2019-05-05T12:13:24.213Z,20.97
2019-05-05T12:14:06.186Z,20.94
2019-05-05T12:14:46.581Z,21.01
2019-05-05T12:15:26.952Z,20.96
2019-05-05T12:16:07.480Z,21.08
2019-05-05T12:16:48.798Z,21.11
2019-05-05T12:17:29.277Z,21.27
2019-05-05T12:18:09.710Z,21.28
2019-05-05T12:18:53.435Z,21.48
2019-05-05T12:19:33.624Z,21.58
2019-05-05T12:20:13.661Z,21.59
2019-05-05T12:20:54.917Z,21.43
2019-05-05T12:21:38.182Z,21.45
2019-05-05T12:22:18.617Z,21.45
2019-05-05T12:22:59.071Z,21.22
2019-05-05T12:23:39.356Z,21.24
2019-05-05T12:24:19.967Z,21.28
2019-05-05T12:25:01.418Z,21.33
2019-05-05T12:25:43.765Z,21.42
2019-05-05T12:26:25.323Z,21.45
2019-05-05T12:27:05.653Z,21.48
2019-05-05T12:27:46.084Z,21.56
2019-05-05T12:28:26.457Z,21.66
2019-05-05T12:29:06.861Z,21.63
2019-05-05T12:29:47.343Z,21.55
2019-05-05T12:33:21.508Z,21.38
2019-05-05T12:34:04.051Z,21.13
2019-05-05T12:34:44.967Z,21.16
2019-05-05T12:35:25.505Z,21.15
2019-05-05T12:36:06.041Z,21
2019-05-05T12:36:47.850Z,20.88
2019-05-05T12:37:28.572Z,20.68
2019-05-05T12:38:10.929Z,20.54
2019-05-05T12:38:54.310Z,20.41
2019-05-05T12:39:37.835Z,20.48
2019-05-05T12:40:19.351Z,20.57
2019-05-05T12:40:59.956Z,20.63
2019-05-05T12:41:44.429Z,20.87
2019-05-05T12:42:25.491Z,20.85
2019-05-05T12:43:07.122Z,20.96
2019-05-05T12:43:51.310Z,21.01
2019-05-05T12:44:34.071Z,21.03
2019-05-05T12:45:14.316Z,21.16
2019-05-05T12:45:55.151Z,21.26
2019-05-05T12:46:36.503Z,21.15
2019-05-05T12:47:19.340Z,21.27
2019-05-05T12:48:00.565Z,21.49
2019-05-05T12:48:43.781Z,21.59
2019-05-05T12:49:25.369Z,21.61
2019-05-05T12:50:04.231Z,21.63
2019-05-05T12:50:45.291Z,21.61
2019-05-05T12:51:27.865Z,21.64
2019-05-05T12:52:08.925Z,21.7
2019-05-05T12:52:50.378Z,21.81
2019-05-05T12:53:32.976Z,21.81
2019-05-05T12:54:14.637Z,21.75
2019-05-05T12:54:55.065Z,21.71
2019-05-05T12:55:41.303Z,21.68
2019-05-05T12:56:19.036Z,21.61
2019-05-05T12:57:04.362Z,21.56
2019-05-05T12:57:45.886Z,21.51
2019-05-05T12:58:28.101Z,21.61
2019-05-05T12:59:08.541Z,21.52
2019-05-05T12:59:48.946Z,21.58
2019-05-05T13:01:10.191Z,21.55
2019-05-05T13:01:50.623Z,21.61
2019-05-05T13:02:31.195Z,21.59
2019-05-05T13:03:13.390Z,21.58
2019-05-05T13:03:54.228Z,21.49
2019-05-05T13:04:33.847Z,21.61
2019-05-05T13:05:14.437Z,21.73
2019-05-05T13:05:54.154Z,21.7
2019-05-05T13:06:34.784Z,21.82
2019-05-05T13:07:15.020Z,22.02
2019-05-05T13:07:55.454Z,21.96
2019-05-05T13:08:35.807Z,22.06
2019-05-05T13:09:16.350Z,21.99
2019-05-05T13:09:58.575Z,22.08
2019-05-05T13:10:39.364Z,22.08
2019-05-05T13:11:21.129Z,22.08
2019-05-05T13:12:01.870Z,21.91
2019-05-05T13:12:43.688Z,22.01
2019-05-05T13:23:21.010Z,19.27
2019-05-05T13:24:04.451Z,18.72
2019-05-05T13:24:48.070Z,18.5
2019-05-05T13:25:30.312Z,18.01
2019-05-05T13:26:10.723Z,17.68
2019-05-05T13:26:54.040Z,17.33
2019-05-05T13:27:34.220Z,16.73
2019-05-05T13:28:14.502Z,16.42
2019-05-05T13:28:54.279Z,16.07
2019-05-05T13:29:34.499Z,15.66
2019-05-05T13:30:14.976Z,15.4
2019-05-05T13:30:56.264Z,15.01
2019-05-05T13:31:36.667Z,15
2019-05-05T13:32:17.026Z,14.78
2019-05-05T13:32:57.484Z,14.45
2019-05-05T13:33:37.861Z,14.36
2019-05-05T13:34:58.707Z,13.93
2019-05-05T13:35:39.187Z,13.88
2019-05-05T13:36:19.537Z,13.87
2019-05-05T13:36:59.940Z,13.81
2019-05-05T13:37:44.182Z,13.76
2019-05-05T13:38:23.909Z,13.79
2019-05-05T13:39:05.730Z,13.63
2019-05-05T13:39:46.025Z,13.61
2019-05-05T13:40:26.377Z,13.59
2019-05-05T13:41:10.028Z,13.53
2019-05-05T13:41:50.454Z,13.62
2019-05-05T13:42:30.820Z,13.57
2019-05-05T13:43:11.167Z,13.59
2019-05-05T13:43:51.570Z,13.48
2019-05-05T13:44:33.418Z,13.5
2019-05-05T13:45:14.326Z,13.48
2019-05-05T13:45:54.033Z,13.5
2019-05-05T13:46:33.881Z,13.53
2019-05-05T13:47:13.544Z,13.39
2019-05-05T13:47:54.120Z,13.35
2019-05-05T13:48:34.385Z,13.43
2019-05-05T13:49:14.790Z,13.25
2019-05-05T13:49:55.175Z,13.27
2019-05-05T13:50:35.568Z,13.22
2019-05-05T13:51:15.939Z,13.25
2019-05-05T13:51:56.351Z,13.12
2019-05-05T13:53:17.202Z,13.1
2019-05-05T13:53:57.645Z,13.1
2019-05-05T13:54:38.002Z,13.13
2019-05-05T13:56:09.577Z,13.07
2019-05-05T13:56:39.167Z,13.16
2019-05-05T13:57:19.603Z,13.13
2019-05-05T13:57:59.999Z,13.22
2019-05-05T13:58:40.456Z,13.24
2019-05-05T13:59:21.034Z,13.36
2019-05-05T14:00:03.581Z,13.41
2019-05-05T14:00:41.737Z,13.46
2019-05-05T14:01:23.692Z,13.59
2019-05-05T14:02:02.584Z,13.55
2019-05-05T14:02:43.914Z,13.62
2019-05-05T14:03:24.140Z,13.62
2019-05-05T14:04:04.656Z,13.76
2019-05-05T14:04:44.929Z,13.84
2019-05-05T14:05:25.423Z,13.88
2019-05-05T14:06:05.750Z,13.93
2019-05-05T14:06:49.836Z,14.08
2019-05-05T14:07:28.752Z,14.11
2019-05-05T14:08:09.130Z,14.11
2019-05-05T14:08:49.710Z,14.16
2019-05-05T14:09:31.792Z,14.2
2019-05-05T14:10:14.166Z,14.2
2019-05-05T14:10:54.789Z,14.17
2019-05-05T14:11:37.626Z,14.29
2019-05-05T14:12:20.242Z,14.54
2019-05-05T14:13:59.254Z,14.45
2019-05-05T14:14:39.683Z,14.41
2019-05-05T14:15:20.111Z,14.39
2019-05-05T14:16:00.748Z,14.39
2019-05-05T14:16:41.689Z,14.53
2019-05-05T14:17:21.953Z,14.52
2019-05-05T14:18:03.775Z,14.36
2019-05-05T14:18:42.720Z,14.27
2019-05-05T14:19:24.784Z,14.16
2019-05-05T14:20:09.391Z,14.17
2019-05-05T14:20:44.605Z,14.16
2019-05-05T14:21:24.988Z,14.17
2019-05-05T14:27:56.576Z,14.6
2019-05-05T14:29:23.972Z,14.57
2019-05-05T14:30:04.021Z,14.54
2019-05-05T14:30:43.790Z,14.52
2019-05-05T14:31:24.498Z,14.48
2019-05-05T14:32:04.681Z,14.56
2019-05-05T14:32:45.107Z,14.56
2019-05-05T14:33:25.834Z,14.63
2019-05-05T14:34:07.203Z,14.78
2019-05-05T14:34:47.091Z,14.79
2019-05-05T14:35:27.646Z,14.78
2019-05-05T14:36:07.990Z,14.71
2019-05-05T14:36:48.618Z,14.71
2019-05-05T14:41:28.414Z,14.72
2019-05-05T14:42:07.897Z,14.61
2019-05-05T14:42:48.872Z,14.63
2019-05-05T14:43:30.164Z,14.61
2019-05-05T14:44:13.329Z,14.63
2019-05-05T14:44:54.344Z,14.61
2019-05-05T14:45:33.983Z,14.59
2019-05-05T14:46:14.476Z,14.52
2019-05-05T14:46:54.079Z,14.59
2019-05-05T14:47:34.942Z,14.48
2019-05-05T14:48:15.464Z,14.41
2019-05-05T14:48:56.293Z,14.39
2019-05-05T14:49:37.070Z,14.39
2019-05-05T14:50:19.016Z,14.42
2019-05-05T14:50:59.692Z,14.36
2019-05-05T14:51:40.559Z,14.45
2019-05-05T14:52:21.488Z,14.53
2019-05-05T14:53:04.008Z,14.52
2019-05-05T14:54:24.817Z,14.39
2019-05-05T14:55:08.994Z,14.01
2019-05-05T14:55:50.817Z,13.61
2019-05-05T14:58:06.023Z,13.29
2019-05-05T14:58:48.728Z,13.21
2019-05-05T14:59:31.000Z,13.35
2019-05-05T15:00:13.759Z,13.44
2019-05-05T15:00:52.570Z,13.51
2019-05-05T15:01:34.380Z,13.57
2019-05-05T15:02:14.544Z,13.54
2019-05-05T15:02:55.221Z,13.83
2019-05-05T15:03:36.964Z,13.98
2019-05-05T15:04:17.900Z,14.13
2019-05-05T15:04:58.504Z,14.19
2019-05-05T15:05:38.957Z,14.26
2019-05-05T15:06:19.634Z,14.41
2019-05-05T15:07:00.281Z,14.56
2019-05-05T15:07:41.034Z,14.74
2019-05-05T15:08:24.040Z,14.82
2019-05-05T15:09:03.878Z,14.94
2019-05-05T15:09:44.892Z,15.15
2019-05-05T15:10:25.377Z,15.19
2019-05-05T15:11:05.698Z,15.4
2019-05-05T15:11:46.168Z,15.55
2019-05-05T15:12:26.647Z,15.6
2019-05-05T15:13:06.987Z,15.71
2019-05-05T15:13:47.729Z,15.93
2019-05-05T15:14:28.157Z,15.96
2019-05-05T15:15:08.837Z,16.07
2019-05-05T15:15:49.087Z,16.11
2019-05-05T15:16:29.551Z,16.16
2019-05-05T15:17:09.977Z,16.32
2019-05-05T15:17:50.363Z,16.26
2019-05-05T15:18:30.907Z,16.27
2019-05-05T15:19:11.594Z,16.27
2019-05-05T15:19:53.975Z,16.16
2019-05-05T15:20:33.591Z,16.13
2019-05-05T15:21:13.684Z,16.13
2019-05-05T15:21:54.215Z,16.06
2019-05-05T15:22:37.311Z,16.1
2019-05-05T15:23:18.291Z,16.04
2019-05-05T15:23:59.921Z,16.1
2019-05-05T15:24:40.724Z,16.06
2019-05-05T15:25:23.320Z,16.08
2019-05-05T15:26:04.270Z,16.06
2019-05-05T15:26:51.384Z,15.93
2019-05-05T15:27:26.167Z,15.86
2019-05-05T15:28:06.599Z,15.77
2019-05-05T15:28:58.478Z,15.8
2019-05-05T15:30:47.543Z,15.59
2019-05-05T15:31:27.995Z,15.58
2019-05-05T15:32:08.398Z,15.64
2019-05-05T15:32:48.963Z,15.56
2019-05-05T15:33:29.288Z,15.49
2019-05-05T15:34:10.859Z,15.55
2019-05-05T15:34:51.439Z,15.41
2019-05-05T15:35:33.841Z,15.37
2019-05-05T15:36:13.788Z,15.41
2019-05-05T15:36:54.622Z,15.44
2019-05-05T15:37:36.051Z,15.34
2019-05-05T15:38:16.693Z,15.43
2019-05-05T15:40:36.633Z,15.37
2019-05-05T15:41:18.059Z,15.35
2019-05-05T15:41:58.573Z,15.37
2019-05-05T15:42:39.873Z,15.41
2019-05-05T15:43:20.501Z,15.31
2019-05-05T15:44:03.710Z,15.35
2019-05-05T15:44:41.386Z,15.33
2019-05-05T15:45:23.491Z,15.41
2019-05-05T15:46:04.416Z,15.48
2019-05-05T15:46:44.185Z,15.44
2019-05-05T15:47:23.949Z,15.46
2019-05-05T15:48:04.648Z,15.49
2019-05-05T15:48:44.756Z,15.46
2019-05-05T15:49:25.076Z,15.38
2019-05-05T15:50:05.622Z,15.41
2019-05-05T15:50:46.006Z,15.49
2019-05-05T15:51:26.321Z,15.52
2019-05-05T15:52:07.242Z,15.64
2019-05-05T15:52:47.136Z,15.59
2019-05-05T15:53:27.528Z,15.62
2019-05-05T15:54:09.972Z,15.59
2019-05-05T15:54:50.331Z,15.67
2019-05-05T15:55:30.743Z,15.8
2019-05-05T15:56:11.092Z,15.85
2019-05-05T15:57:02.888Z,16.01
2019-05-05T15:57:33.530Z,16.04
2019-05-05T15:58:14.088Z,16.06
2019-05-05T15:58:54.376Z,16.1
2019-05-05T15:59:35.265Z,16.16
2019-05-05T16:01:49.372Z,16.26
2019-05-05T16:02:31.829Z,16.32
2019-05-05T16:03:13.541Z,16.37
2019-05-05T16:03:54.276Z,16.36
2019-05-05T16:04:34.835Z,16.33
2019-05-05T16:05:15.240Z,16.29
2019-05-05T16:08:15.077Z,16.5
2019-05-05T16:08:56.617Z,16.34
2019-05-05T16:09:37.512Z,16.22
2019-05-05T16:10:18.072Z,16.27
2019-05-05T16:10:58.422Z,16.22
2019-05-05T16:11:38.776Z,16.27
2019-05-05T16:12:31.174Z,16.27
2019-05-05T16:13:00.157Z,16.26
2019-05-05T16:13:41.319Z,16.27
2019-05-05T16:14:23.703Z,16.27
2019-05-05T16:15:02.045Z,16.25
2019-05-05T16:15:42.409Z,16.26
2019-05-05T16:16:24.684Z,16.23
2019-05-05T16:17:06.488Z,16.17
2019-05-05T16:17:45.623Z,16.25
2019-05-05T16:18:26.299Z,16.08
2019-05-05T16:19:08.543Z,16.16
2019-05-05T16:19:48.021Z,16.08
2019-05-05T16:20:28.638Z,16.01
2019-05-05T16:21:08.573Z,15.93
2019-05-05T16:21:48.984Z,15.86
2019-05-05T16:22:29.542Z,15.74
2019-05-05T16:23:10.069Z,15.6
2019-05-05T16:23:51.407Z,15.55
2019-05-05T16:24:33.566Z,15.34
2019-05-05T16:25:14.390Z,15.27
2019-05-05T16:25:54.993Z,15.16
2019-05-05T16:26:37.400Z,15.04
2019-05-05T16:27:21.559Z,15.04
2019-05-05T16:27:59.191Z,14.95
2019-05-05T16:28:39.554Z,14.94
2019-05-05T16:29:20.279Z,14.82
2019-05-05T16:30:00.668Z,14.75
2019-05-05T16:30:44.431Z,14.74
2019-05-05T16:31:24.173Z,14.67
2019-05-05T17:09:55.007Z,13.51
2019-05-05T17:10:37.519Z,13.48
2019-05-05T17:11:17.901Z,13.62
2019-05-05T17:12:00.179Z,13.47
2019-05-05T17:12:40.397Z,13.47
2019-05-05T17:13:20.831Z,13.46
2019-05-05T17:14:08.242Z,13.48
2019-05-05T17:14:50.752Z,13.43
2019-05-05T17:15:35.077Z,13.44
2019-05-05T17:16:13.508Z,13.47